Time;durP1;ratioP1;P1;durP2;ratioP2;P2;SDS_P1;SDS_P2;PMS_P1;PMS_P2;Temp;Humidity;BMP_temperature;BMP_pressure;BME280_temperature;BME280_humidity;BME280_pressure;Samples;Min_cycle;Max_cycle;Signal;HPM_P1;HPM_P2
2023/12/26 00:02:24;;;;;;;13.60;1.98;;;;;;;14.06;87.62;100600.84;5011076;28;20120;-48
2023/12/26 00:04:49;;;;;;;11.27;1.88;;;;;;;14.25;87.24;100600.72;5010948;28;20084;-46
2023/12/26 00:07:15;;;;;;;15.95;2.58;;;;;;;13.83;88.88;100602.69;5011662;28;20034;-47
2023/12/26 00:09:41;;;;;;;13.85;2.22;;;;;;;13.74;89.13;100613.19;5010365;28;20034;-48
2023/12/26 00:12:06;;;;;;;17.55;2.45;;;;;;;13.93;88.56;100607.00;5010903;28;20041;-45
2023/12/26 00:14:31;;;;;;;19.58;3.03;;;;;;;13.69;89.82;100617.59;5010512;28;20033;-46
2023/12/26 00:16:57;;;;;;;22.33;2.80;;;;;;;14.18;87.69;100605.13;5011144;28;20037;-45
2023/12/26 00:19:22;;;;;;;15.73;2.80;;;;;;;13.99;88.32;100606.13;5010898;28;20069;-48
2023/12/26 00:21:48;;;;;;;18.13;2.80;;;;;;;14.06;88.26;100599.97;5010583;28;20096;-46
2023/12/26 00:24:13;;;;;;;20.17;2.80;;;;;;;13.78;88.48;100591.38;5010373;28;20030;-44
2023/12/26 00:26:38;;;;;;;14.98;2.35;;;;;;;13.81;88.44;100604.44;5010031;28;20112;-44
2023/12/26 00:29:04;;;;;;;16.45;2.90;;;;;;;13.97;87.87;100610.47;5011128;28;20464;-47
2023/12/26 00:31:29;;;;;;;22.17;3.00;;;;;;;14.31;86.65;100605.94;5011189;28;20129;-43
2023/12/26 00:33:55;;;;;;;14.35;2.63;;;;;;;14.25;86.65;100613.84;5009959;28;20370;-43
2023/12/26 00:36:20;;;;;;;17.33;2.42;;;;;;;14.41;85.80;100598.03;5011028;28;20041;-52
2023/12/26 00:38:46;;;;;;;18.83;2.60;;;;;;;14.36;86.81;100599.78;5012235;28;20092;-45
2023/12/26 00:41:14;;;;;;;14.52;2.05;;;;;;;14.04;88.00;100606.97;5011215;28;20050;-46
2023/12/26 00:43:39;;;;;;;15.65;2.55;;;;;;;13.97;87.78;100603.50;5009215;28;20104;-46
2023/12/26 00:46:06;;;;;;;16.67;2.47;;;;;;;13.96;87.00;100600.91;5009756;28;20030;-50
2023/12/26 00:48:31;;;;;;;20.23;2.58;;;;;;;14.14;87.06;100606.94;5010168;28;20048;-45
2023/12/26 00:50:56;;;;;;;14.02;2.30;;;;;;;13.70;88.38;100612.34;5009486;28;20062;-48
2023/12/26 00:53:22;;;;;;;15.85;2.40;;;;;;;14.06;88.20;100608.69;5009391;28;20069;-43
2023/12/26 00:55:48;;;;;;;13.30;1.88;;;;;;;13.88;87.76;100603.56;5009578;28;20042;-47
2023/12/26 00:58:13;;;;;;;16.60;2.33;;;;;;;14.15;87.35;100613.00;5013024;28;20041;-46
2023/12/26 01:00:39;;;;;;;17.33;2.65;;;;;;;14.13;87.22;100613.03;5012794;28;20060;-47
2023/12/26 01:03:04;;;;;;;15.05;2.05;;;;;;;14.07;87.95;100599.09;5011755;28;20045;-50
2023/12/26 01:05:29;;;;;;;14.32;1.88;;;;;;;13.99;87.05;100608.72;5013239;28;20399;-49
2023/12/26 01:07:55;;;;;;;13.10;1.95;;;;;;;14.20;86.34;100606.00;5012978;28;20141;-45
2023/12/26 01:10:20;;;;;;;13.38;2.03;;;;;;;13.90;86.50;100624.50;5013112;28;20048;-45
2023/12/26 01:12:46;;;;;;;14.60;2.08;;;;;;;13.86;87.42;100618.41;5012049;28;20118;-46
2023/12/26 01:15:11;;;;;;;14.40;2.03;;;;;;;13.92;87.29;100617.50;5012280;28;20038;-47
2023/12/26 01:17:37;;;;;;;14.10;2.20;;;;;;;14.01;86.32;100618.34;5010403;28;20125;-44
2023/12/26 01:20:03;;;;;;;12.25;1.95;;;;;;;13.88;87.57;100624.50;5012952;28;20511;-45
2023/12/26 01:22:28;;;;;;;13.32;1.95;;;;;;;13.89;86.18;100643.72;5012882;28;20034;-52
2023/12/26 01:24:53;;;;;;;13.07;1.88;;;;;;;13.88;86.34;100640.25;5012445;28;20038;-45
2023/12/26 01:27:19;;;;;;;11.93;1.80;;;;;;;14.03;85.99;100632.28;5011528;28;20385;-46
2023/12/26 01:29:44;;;;;;;15.10;1.92;;;;;;;14.11;85.90;100640.13;5011869;28;20113;-50
2023/12/26 01:32:10;;;;;;;13.43;1.83;;;;;;;13.96;86.09;100640.22;5012373;28;20761;-47
2023/12/26 01:34:35;;;;;;;10.52;1.63;;;;;;;14.08;85.87;100640.16;5012130;28;20566;-45
2023/12/26 01:37:01;;;;;;;9.57;1.50;;;;;;;14.11;84.83;100633.13;5012424;28;20072;-50
2023/12/26 01:39:27;;;;;;;10.85;1.70;;;;;;;13.88;85.61;100639.38;5012581;28;20056;-45
2023/12/26 01:41:53;;;;;;;8.68;1.60;;;;;;;13.80;85.66;100648.13;5012132;28;20030;-46
2023/12/26 01:44:18;;;;;;;18.00;2.22;;;;;;;14.18;84.13;100660.19;5012116;28;20412;-44
2023/12/26 01:46:44;;;;;;;13.25;1.73;;;;;;;14.18;84.52;100662.81;5011961;28;20030;-46
2023/12/26 01:49:10;;;;;;;9.95;1.52;;;;;;;14.07;84.46;100659.38;5012204;28;20040;-47
2023/12/26 01:51:36;;;;;;;10.25;1.40;;;;;;;14.15;84.83;100678.53;5011883;28;20452;-46
2023/12/26 01:54:02;;;;;;;9.95;1.40;;;;;;;14.22;84.70;100659.28;5012194;28;20041;-47
2023/12/26 01:56:29;;;;;;;10.32;1.08;;;;;;;13.77;84.94;100674.34;5011863;28;20036;-50
2023/12/26 01:58:54;;;;;;;8.90;1.88;;;;;;;13.94;84.41;100687.38;5011538;28;20053;-49
2023/12/26 02:01:20;;;;;;;13.82;1.40;;;;;;;13.93;83.47;100682.13;5012016;28;20058;-46
2023/12/26 02:03:46;;;;;;;8.90;1.40;;;;;;;14.14;82.84;100677.72;5011071;28;20049;-46
2023/12/26 02:06:13;;;;;;;11.18;1.75;;;;;;;14.03;83.74;100694.31;5011825;28;20126;-44
2023/12/26 02:08:40;;;;;;;12.45;1.45;;;;;;;14.07;82.38;100699.56;5009160;28;20119;-48
2023/12/26 02:11:06;;;;;;;11.75;1.60;;;;;;;13.95;82.80;100717.97;5011914;28;20045;-44
2023/12/26 02:13:34;;;;;;;9.57;1.48;;;;;;;13.74;84.17;100718.88;5011329;28;20038;-45
2023/12/26 02:16:06;;;;;;;9.70;1.40;;;;;;;14.13;82.29;100706.53;5011479;28;20107;-46
2023/12/26 02:18:32;;;;;;;8.35;1.30;;;;;;;14.01;82.22;100709.22;5012077;28;20416;-45
2023/12/26 02:20:58;;;;;;;14.52;1.60;;;;;;;13.92;82.08;100723.19;5010275;28;20555;-47
2023/12/26 02:23:27;;;;;;;11.70;1.52;;;;;;;13.66;83.11;100725.03;5011603;28;20033;-47
2023/12/26 02:25:54;;;;;;;13.23;1.63;;;;;;;13.37;83.27;100723.28;5010826;28;20037;-51
2023/12/26 02:28:19;;;;;;;9.85;1.92;;;;;;;13.88;81.83;100728.47;5011659;28;20046;-48
2023/12/26 02:30:46;;;;;;;12.43;1.65;;;;;;;13.59;82.96;100732.00;5011124;28;20137;-49
2023/12/26 02:33:12;;;;;;;11.13;1.60;;;;;;;13.76;82.36;100713.66;5011115;28;20117;-48
2023/12/26 02:35:38;;;;;;;7.68;1.42;;;;;;;14.15;80.36;100730.97;5009865;28;20041;-48
2023/12/26 02:38:04;;;;;;;9.85;1.88;;;;;;;13.75;80.97;100736.34;5010278;28;20033;-49
2023/12/26 02:40:29;;;;;;;10.55;1.85;;;;;;;13.89;80.93;100736.31;5011528;28;20412;-46
2023/12/26 02:42:55;;;;;;;14.13;2.10;;;;;;;13.36;81.80;100744.22;5010836;28;20095;-48
2023/12/26 02:45:20;;;;;;;18.17;1.98;;;;;;;13.45;80.45;100754.72;5011569;28;20060;-47
2023/12/26 02:47:46;;;;;;;12.50;1.50;;;;;;;13.69;79.85;100736.34;5011064;28;20401;-49
2023/12/26 02:50:11;;;;;;;8.32;1.55;;;;;;;13.57;78.80;100756.44;5011415;28;20438;-44
2023/12/26 02:52:36;;;;;;;14.52;2.13;;;;;;;13.24;78.34;100768.66;5010536;28;20045;-45
2023/12/26 02:55:02;;;;;;;14.60;1.70;;;;;;;13.43;77.41;100773.91;5008892;28;20042;-50
2023/12/26 02:57:27;;;;;;;8.48;1.55;;;;;;;13.35;78.08;100774.81;5011184;28;20042;-46
2023/12/26 02:59:53;;;;;;;11.15;1.50;;;;;;;13.11;77.10;100803.53;5010808;28;20117;-49
2023/12/26 03:02:19;;;;;;;11.85;1.65;;;;;;;13.23;75.77;100774.78;5010741;28;20034;-47
2023/12/26 03:04:44;;;;;;;6.00;1.50;;;;;;;13.21;75.94;100780.88;5010457;28;20030;-49
2023/12/26 03:07:09;;;;;;;8.15;1.30;;;;;;;13.45;74.04;100787.88;5011407;28;20489;-46
2023/12/26 03:09:35;;;;;;;8.82;1.55;;;;;;;13.23;73.78;100780.03;5010350;28;20045;-48
2023/12/26 03:12:00;;;;;;;9.77;1.40;;;;;;;13.22;73.98;100791.38;5011167;28;20045;-45
2023/12/26 03:14:25;;;;;;;8.02;1.25;;;;;;;13.33;73.62;100809.69;5011040;28;20173;-46
2023/12/26 03:16:51;;;;;;;9.15;1.40;;;;;;;13.35;74.62;100808.84;5011103;28;20045;-47
2023/12/26 03:19:16;;;;;;;8.27;1.88;;;;;;;13.19;75.42;100821.88;5011294;28;20040;-47
2023/12/26 03:21:41;;;;;;;9.60;1.60;;;;;;;13.27;74.99;100828.03;5010740;28;20385;-47
2023/12/26 03:24:07;;;;;;;15.68;1.95;;;;;;;13.40;76.06;100814.06;5011220;28;20107;-49
2023/12/26 03:26:32;;;;;;;12.30;1.80;;;;;;;13.40;76.40;100819.31;5011808;28;20520;-45
2023/12/26 03:28:58;;;;;;;11.82;1.55;;;;;;;13.08;77.02;100815.72;5015317;28;20045;-44
2023/12/26 03:31:24;;;;;;;10.80;1.75;;;;;;;13.17;76.92;100823.66;5015744;28;20038;-48
2023/12/26 03:33:50;;;;;;;14.18;1.92;;;;;;;13.07;76.78;100817.47;5011683;28;20043;-45
2023/12/26 03:36:15;;;;;;;8.13;1.60;;;;;;;13.23;75.42;100821.91;5011384;28;20033;-49
2023/12/26 03:38:43;;;;;;;8.05;1.65;;;;;;;12.98;75.94;100828.81;5013141;28;20041;-48
2023/12/26 03:41:09;;;;;;;10.07;2.13;;;;;;;12.97;74.93;100840.13;5015155;28;20029;-47
2023/12/26 03:43:34;;;;;;;11.23;1.50;;;;;;;13.26;73.97;100827.13;5014097;28;20034;-47
2023/12/26 03:45:59;;;;;;;10.52;1.63;;;;;;;13.07;73.83;100817.47;5009966;28;20443;-46
2023/12/26 03:48:25;;;;;;;9.18;1.85;;;;;;;13.05;73.20;100826.19;5009946;28;20042;-45
2023/12/26 03:50:50;;;;;;;7.03;1.42;;;;;;;13.10;72.03;100832.31;5011254;28;20117;-44
2023/12/26 03:53:16;;;;;;;10.02;1.70;;;;;;;12.92;72.61;100831.41;5012788;28;20112;-45
2023/12/26 03:55:41;;;;;;;14.18;1.50;;;;;;;13.15;71.92;100830.63;5013464;28;20041;-45
2023/12/26 03:58:07;;;;;;;9.88;1.60;;;;;;;13.22;71.54;100846.34;5012001;28;20100;-45
2023/12/26 04:00:32;;;;;;;9.43;1.70;;;;;;;13.11;71.55;100850.66;5008466;28;20092;-47
2023/12/26 04:02:57;;;;;;;8.32;1.23;;;;;;;13.12;71.53;100843.66;5010008;28;20037;-45
2023/12/26 04:05:23;;;;;;;10.43;1.75;;;;;;;12.84;71.55;100861.88;5009994;28;20038;-46
2023/12/26 04:07:48;;;;;;;8.00;1.17;;;;;;;12.85;70.74;100863.66;5009628;28;20468;-47
2023/12/26 04:10:14;;;;;;;14.32;1.48;;;;;;;12.99;70.32;100867.16;5010228;28;20037;-44
2023/12/26 04:12:41;;;;;;;10.20;1.50;;;;;;;12.79;70.73;100874.09;5008667;28;20133;-48
2023/12/26 04:15:08;;;;;;;11.43;1.40;;;;;;;13.02;69.89;100871.53;5008707;28;20048;-46
2023/12/26 04:17:33;;;;;;;13.77;1.63;;;;;;;12.88;70.58;100884.56;5009583;28;20046;-48
2023/12/26 04:19:58;;;;;;;13.60;1.70;;;;;;;13.01;70.21;100889.00;5010078;28;20446;-46
2023/12/26 04:22:24;;;;;;;13.75;1.65;;;;;;;12.63;71.55;100887.94;5009857;28;20129;-46
2023/12/26 04:24:49;;;;;;;11.75;1.70;;;;;;;12.31;70.97;100890.38;5009370;28;20038;-48
2023/12/26 04:27:15;;;;;;;10.55;1.50;;;;;;;12.20;69.28;100892.03;5009939;28;20046;-45
2023/12/26 04:29:40;;;;;;;7.30;1.50;;;;;;;12.50;67.68;100892.22;5009447;28;20465;-45
2023/12/26 04:32:06;;;;;;;6.57;1.25;;;;;;;12.50;67.55;100899.22;5012454;28;20038;-48
2023/12/26 04:34:31;;;;;;;10.38;1.52;;;;;;;12.74;66.71;100906.31;5013629;28;20034;-45
2023/12/26 04:36:57;;;;;;;8.93;1.10;;;;;;;12.65;67.28;100907.13;5013380;28;20084;-45
2023/12/26 04:39:22;;;;;;;11.30;1.50;;;;;;;12.47;67.50;100905.28;5013775;28;20172;-49
2023/12/26 04:41:47;;;;;;;12.02;1.55;;;;;;;12.38;68.25;100909.59;5013471;28;20045;-47
2023/12/26 04:44:13;;;;;;;11.85;1.58;;;;;;;12.17;67.90;100915.53;5013167;28;20037;-47
2023/12/26 04:46:38;;;;;;;13.73;1.40;;;;;;;12.24;67.41;100921.69;5011668;28;20052;-47
2023/12/26 04:49:04;;;;;;;11.52;1.20;;;;;;;12.27;67.12;100919.97;5013478;28;20042;-46
2023/12/26 04:51:30;;;;;;;8.88;1.48;;;;;;;11.82;67.04;100920.50;5013605;28;20088;-44
2023/12/26 04:53:56;;;;;;;12.75;1.42;;;;;;;12.54;65.54;100929.75;5013102;28;20037;-44
2023/12/26 04:56:21;;;;;;;7.70;1.10;;;;;;;12.58;65.05;100936.72;5013598;28;20029;-44
2023/12/26 04:58:51;;;;;;;12.02;1.75;;;;;;;11.99;66.43;100939.78;5012705;28;20105;-49
2023/12/26 05:01:18;;;;;;;13.15;1.60;;;;;;;12.16;67.22;100935.56;5013192;28;20045;-44
2023/12/26 05:03:44;;;;;;;10.52;1.50;;;;;;;12.71;65.70;100935.06;5012542;28;20044;-48
2023/12/26 05:06:10;;;;;;;11.68;1.58;;;;;;;12.16;67.35;100946.03;5013046;28;20412;-44
2023/12/26 05:08:40;;;;;;;14.02;1.75;;;;;;;12.04;67.38;100943.31;5012735;28;20029;-44
2023/12/26 05:11:06;;;;;;;11.82;1.40;;;;;;;12.49;66.73;100947.16;5013333;28;20056;-48
2023/12/26 05:13:32;;;;;;;10.48;1.55;;;;;;;12.54;66.33;100948.06;5012648;28;20041;-48
2023/12/26 05:16:05;;;;;;;10.45;1.55;;;;;;;11.88;67.04;100946.66;5011490;28;20041;-46
2023/12/26 05:18:31;;;;;;;12.30;1.50;;;;;;;12.08;67.54;100957.28;5013161;28;20045;-49
2023/12/26 05:20:58;;;;;;;12.15;1.60;;;;;;;12.37;66.23;100960.13;5012956;28;20558;-46
2023/12/26 05:23:23;;;;;;;12.35;1.35;;;;;;;12.28;66.15;100967.91;5012976;28;20034;-47
2023/12/26 05:25:48;;;;;;;11.65;1.45;;;;;;;11.98;66.23;100964.16;5012374;28;20042;-46
2023/12/26 05:28:14;;;;;;;10.77;1.52;;;;;;;12.19;65.31;100973.94;5012765;28;20037;-45
2023/12/26 05:30:39;;;;;;;7.72;1.25;;;;;;;12.18;64.19;100972.19;5012245;28;20050;-45
2023/12/26 05:33:05;;;;;;;12.52;1.40;;;;;;;12.01;64.75;100981.63;5012474;28;20038;-46
2023/12/26 05:35:30;;;;;;;11.13;1.90;;;;;;;11.71;65.01;100995.22;5012436;28;20042;-46
2023/12/26 05:37:55;;;;;;;10.82;1.33;;;;;;;12.32;64.26;101003.69;5012086;28;20457;-44
2023/12/26 05:40:21;;;;;;;11.52;1.50;;;;;;;12.37;63.51;101001.97;5012546;28;20045;-48
2023/12/26 05:42:47;;;;;;;8.32;1.20;;;;;;;12.43;63.88;100997.66;5011872;28;20125;-45
2023/12/26 05:45:13;;;;;;;13.70;1.70;;;;;;;12.25;64.84;101002.75;5012228;28;20038;-49
2023/12/26 05:47:38;;;;;;;10.75;1.40;;;;;;;12.31;64.94;101004.53;5011828;28;20037;-46
2023/12/26 05:50:04;;;;;;;11.48;1.52;;;;;;;12.34;65.36;101005.41;5012411;28;20042;-44
2023/12/26 05:52:29;;;;;;;16.15;1.70;;;;;;;12.41;65.22;101015.06;5011991;28;20408;-49
2023/12/26 05:54:55;;;;;;;11.90;1.42;;;;;;;12.22;65.50;101021.00;5012419;28;20036;-45
2023/12/26 05:57:20;;;;;;;9.55;1.50;;;;;;;11.91;65.69;101047.69;5012894;28;20065;-44
2023/12/26 05:59:46;;;;;;;16.33;1.80;;;;;;;12.14;65.85;101048.78;5011743;28;20052;-53
2023/12/26 06:02:11;;;;;;;15.35;1.90;;;;;;;12.51;64.64;101053.50;5012204;28;20038;-45
2023/12/26 06:04:37;;;;;;;10.00;1.63;;;;;;;12.27;65.45;101044.56;5011831;28;20564;-46
2023/12/26 06:07:02;;;;;;;12.00;1.75;;;;;;;12.28;65.11;101049.81;5012180;28;20030;-49
2023/12/26 06:09:28;;;;;;;8.23;1.45;;;;;;;12.43;64.57;101052.56;5012226;28;20030;-44
2023/12/26 06:11:53;;;;;;;9.70;1.45;;;;;;;12.24;63.74;101055.00;5011099;28;20030;-46
2023/12/26 06:14:19;;;;;;;11.27;1.70;;;;;;;12.38;64.72;101069.94;5011801;28;20038;-46
2023/12/26 06:16:44;;;;;;;9.23;1.60;;;;;;;12.13;64.96;101067.97;5011718;28;20120;-48
2023/12/26 06:19:10;;;;;;;6.10;1.33;;;;;;;12.06;65.16;101074.00;5012195;28;20038;-45
2023/12/26 06:21:36;;;;;;;12.30;1.77;;;;;;;11.85;66.00;101081.56;5011724;28;20054;-47
2023/12/26 06:24:02;;;;;;;9.18;1.70;;;;;;;12.21;64.63;101087.19;5010465;28;20054;-46
2023/12/26 06:26:27;;;;;;;13.25;1.60;;;;;;;12.08;65.21;101088.81;5012150;28;20497;-48
2023/12/26 06:28:52;;;;;;;11.02;1.75;;;;;;;11.91;64.85;101073.81;5012831;28;20045;-45
2023/12/26 06:31:18;;;;;;;13.35;1.80;;;;;;;12.11;64.91;101099.31;5012638;28;20068;-45
2023/12/26 06:33:44;;;;;;;10.98;1.85;;;;;;;11.82;65.50;101097.22;5011592;28;20121;-46
2023/12/26 06:36:09;;;;;;;13.52;1.55;;;;;;;12.17;64.29;101091.53;5012355;28;20037;-47
2023/12/26 06:38:34;;;;;;;9.25;1.50;;;;;;;12.21;64.47;101105.50;5012398;28;20065;-45
2023/12/26 06:41:01;;;;;;;12.80;1.70;;;;;;;11.89;65.51;101112.13;5012494;28;20062;-44
2023/12/26 06:43:28;;;;;;;11.57;1.80;;;;;;;12.04;64.97;101118.38;5011392;28;20037;-45
2023/12/26 06:45:53;;;;;;;9.50;1.50;;;;;;;12.07;65.11;101113.22;5011156;28;20064;-45
2023/12/26 06:48:19;;;;;;;8.15;1.40;;;;;;;11.94;65.44;101120.88;5011564;28;20703;-46
2023/12/26 06:50:44;;;;;;;11.55;1.40;;;;;;;12.09;65.09;101126.28;5010159;28;20628;-45
2023/12/26 06:53:10;;;;;;;11.88;1.73;;;;;;;11.84;66.21;101125.09;5010601;28;20117;-47
2023/12/26 06:55:35;;;;;;;16.60;1.98;;;;;;;12.02;65.09;101125.31;5010354;28;20083;-47
2023/12/26 06:58:01;;;;;;;13.85;1.65;;;;;;;11.79;65.89;101121.56;5010999;28;20141;-49
2023/12/26 07:00:26;;;;;;;12.00;1.80;;;;;;;12.05;65.52;101133.22;5011150;28;20034;-50
2023/12/26 07:02:54;;;;;;;13.00;1.90;;;;;;;11.99;65.87;101140.97;5009928;28;26157;-50
2023/12/26 07:05:20;;;;;;;9.35;1.38;;;;;;;12.05;65.80;101134.94;5010658;28;20124;-50
2023/12/26 07:07:45;;;;;;;7.18;1.45;;;;;;;12.05;65.60;101140.19;5010762;28;20117;-44
2023/12/26 07:10:11;;;;;;;8.93;1.70;;;;;;;11.91;65.32;101146.97;5010775;28;20408;-47
2023/12/26 07:12:37;;;;;;;10.27;1.52;;;;;;;12.05;65.08;101145.41;5009892;28;20061;-46
2023/12/26 07:15:04;;;;;;;13.25;1.67;;;;;;;12.11;64.70;101150.69;5011882;28;20038;-50
2023/12/26 07:17:29;;;;;;;9.15;2.28;;;;;;;11.70;65.25;101148.44;5011242;28;20044;-48
2023/12/26 07:19:54;;;;;;;8.88;1.60;;;;;;;12.24;64.24;101144.75;5010381;28;20026;-48
2023/12/26 07:22:20;;;;;;;10.68;1.50;;;;;;;11.85;64.17;101146.88;5010500;28;20111;-49
2023/12/26 07:24:45;;;;;;;12.10;1.35;;;;;;;11.92;65.09;101147.00;5010276;28;20574;-47
2023/12/26 07:27:11;;;;;;;11.18;1.88;;;;;;;12.02;65.48;101161.03;5010896;28;20496;-48
2023/12/26 07:29:37;;;;;;;9.95;1.73;;;;;;;11.81;66.84;101164.28;5010261;28;20104;-49
2023/12/26 07:32:02;;;;;;;12.68;1.70;;;;;;;12.27;65.34;101167.41;5010488;28;20496;-48
2023/12/26 07:34:27;;;;;;;9.60;1.60;;;;;;;12.25;65.79;101169.16;5010244;28;20386;-48
2023/12/26 07:36:53;;;;;;;11.13;1.58;;;;;;;12.30;65.95;101180.53;5009934;28;20030;-44
2023/12/26 07:39:19;;;;;;;11.48;2.00;;;;;;;12.09;66.53;101174.19;5009314;28;20117;-44
2023/12/26 07:41:44;;;;;;;10.90;1.80;;;;;;;12.53;65.29;101195.63;5009863;28;20068;-50
2023/12/26 07:44:10;;;;;;;8.35;1.58;;;;;;;12.26;66.69;101197.06;5008996;28;20037;-48
2023/12/26 07:46:35;;;;;;;9.45;1.60;;;;;;;12.50;66.01;101192.94;5010647;28;20109;-45
2023/12/26 07:49:01;;;;;;;16.98;2.42;;;;;;;11.92;66.85;101209.69;5010622;28;20092;-49
2023/12/26 07:51:26;;;;;;;13.05;2.00;;;;;;;12.14;66.45;101216.06;5010258;28;20046;-48
2023/12/26 07:53:52;;;;;;;15.43;1.50;;;;;;;12.44;65.72;101218.19;5009746;28;20040;-46
2023/12/26 07:56:18;;;;;;;10.90;1.80;;;;;;;12.15;66.75;101220.44;5010230;28;20042;-45
2023/12/26 07:58:44;;;;;;;10.13;1.85;;;;;;;12.09;66.87;101228.19;5010063;28;20072;-46
2023/12/26 08:01:09;;;;;;;15.80;2.00;;;;;;;11.93;66.78;101228.88;5010514;28;20545;-47
2023/12/26 08:03:35;;;;;;;11.85;1.70;;;;;;;11.86;66.79;101227.03;5008556;28;20042;-46
2023/12/26 08:06:00;;;;;;;13.38;1.70;;;;;;;11.91;67.06;101228.84;5010795;28;20040;-50
2023/12/26 08:08:26;;;;;;;17.40;2.35;;;;;;;12.00;66.66;101226.38;5014398;28;20037;-44
2023/12/26 08:10:51;;;;;;;14.00;1.83;;;;;;;12.16;66.23;101237.88;5011551;28;20045;-45
2023/12/26 08:13:17;;;;;;;16.50;1.67;;;;;;;11.99;66.27;101249.84;5013928;28;20029;-51
2023/12/26 08:15:42;;;;;;;14.73;2.00;;;;;;;11.87;67.06;101260.13;5013760;28;20033;-47
2023/12/26 08:18:08;;;;;;;7.97;1.92;;;;;;;11.71;67.40;101274.69;5014312;28;20044;-46
2023/12/26 08:20:34;;;;;;;14.52;2.05;;;;;;;12.11;66.38;101270.91;5014763;28;20029;-52
2023/12/26 08:23:00;;;;;;;15.82;2.15;;;;;;;11.99;66.88;101291.66;5014432;28;20053;-51
2023/12/26 08:25:25;;;;;;;16.60;1.92;;;;;;;12.09;66.16;101273.50;5014450;28;20412;-48
2023/12/26 08:27:51;;;;;;;16.42;1.90;;;;;;;11.83;67.05;101293.19;5013514;28;20132;-43
2023/12/26 08:30:16;;;;;;;20.63;2.50;;;;;;;12.17;66.45;101302.38;5012816;28;20034;-43
2023/12/26 08:32:42;;;;;;;18.73;2.50;;;;;;;12.03;66.51;101293.44;5013160;28;20120;-49
2023/12/26 08:35:07;;;;;;;16.77;2.13;;;;;;;12.26;65.47;101294.63;5013921;28;20124;-44
2023/12/26 08:37:33;;;;;;;13.18;2.03;;;;;;;12.23;65.72;101298.97;5012263;28;20124;-47
2023/12/26 08:39:59;;;;;;;25.95;2.15;;;;;;;12.11;66.63;101311.00;5014233;28;20488;-44
2023/12/26 08:42:24;;;;;;;14.48;1.77;;;;;;;12.06;66.60;101311.81;5013970;28;20049;-47
2023/12/26 08:44:49;;;;;;;13.73;2.08;;;;;;;12.25;65.58;101319.03;5014146;28;20540;-44
2023/12/26 08:47:15;;;;;;;17.85;2.00;;;;;;;12.30;65.39;101324.31;5014817;28;20065;-45
2023/12/26 08:49:40;;;;;;;15.50;2.33;;;;;;;12.20;65.75;101332.03;5015731;28;20038;-45
2023/12/26 08:52:05;;;;;;;12.95;1.90;;;;;;;12.38;65.70;101335.78;5015744;28;20069;-45
2023/12/26 08:54:31;;;;;;;17.73;1.98;;;;;;;12.38;65.66;101344.47;5015395;28;20439;-45
2023/12/26 08:56:56;;;;;;;14.80;2.00;;;;;;;11.98;66.64;101350.00;5013612;28;20042;-45
2023/12/26 08:59:22;;;;;;;10.18;1.90;;;;;;;11.85;67.64;101351.53;5014080;28;20129;-44
2023/12/26 09:01:47;;;;;;;14.40;2.40;;;;;;;12.16;66.28;101351.16;5013779;28;20030;-48
2023/12/26 09:04:13;;;;;;;14.35;2.03;;;;;;;11.81;66.91;101360.19;5016670;28;20409;-46
2023/12/26 09:06:38;;;;;;;14.82;2.03;;;;;;;12.05;67.07;101363.19;5016150;28;20087;-46
2023/12/26 09:09:04;;;;;;;14.55;2.00;;;;;;;12.30;65.91;101368.78;5017244;28;20034;-48
2023/12/26 09:11:29;;;;;;;14.27;2.22;;;;;;;12.11;66.35;101367.63;5018680;28;20053;-44
2023/12/26 09:13:55;;;;;;;14.35;1.92;;;;;;;12.14;66.45;101372.88;5014858;28;20112;-46
2023/12/26 09:16:20;;;;;;;17.13;1.85;;;;;;;12.41;65.47;101375.03;5014124;28;20101;-47
2023/12/26 09:18:47;;;;;;;13.45;1.90;;;;;;;12.45;65.08;101382.03;5012152;28;20042;-49
2023/12/26 09:21:13;;;;;;;14.05;2.33;;;;;;;12.39;65.27;101384.56;5015759;28;20034;-47
2023/12/26 09:23:38;;;;;;;15.15;2.03;;;;;;;12.26;65.43;101387.91;5015412;28;20125;-46
2023/12/26 09:26:04;;;;;;;14.63;1.88;;;;;;;12.32;65.47;101394.06;5015341;28;20061;-45
2023/12/26 09:28:30;;;;;;;16.48;2.22;;;;;;;12.31;65.15;101389.72;5014210;28;20064;-46
2023/12/26 09:30:56;;;;;;;20.65;2.10;;;;;;;12.60;64.14;101392.72;5014133;28;20062;-47
2023/12/26 09:33:21;;;;;;;16.88;2.35;;;;;;;12.44;64.42;101409.06;5013615;28;20045;-45
2023/12/26 09:35:47;;;;;;;15.98;2.28;;;;;;;12.37;65.18;101412.47;5013358;28;20068;-45
2023/12/26 09:38:12;;;;;;;12.30;1.83;;;;;;;12.42;65.01;101416.91;5013890;28;20048;-47
2023/12/26 09:40:38;;;;;;;14.23;1.85;;;;;;;12.38;64.66;101398.53;5013802;28;20037;-45
2023/12/26 09:43:04;;;;;;;20.60;2.22;;;;;;;12.32;65.49;101420.22;5012594;28;20041;-44
2023/12/26 09:45:31;;;;;;;18.08;2.17;;;;;;;12.44;64.73;101430.84;5012518;28;20563;-45
2023/12/26 09:47:57;;;;;;;15.82;2.53;;;;;;;12.16;65.56;101436.53;5010399;28;20485;-45
2023/12/26 09:50:23;;;;;;;14.20;2.15;;;;;;;12.53;64.73;101446.69;5012229;28;20741;-45
2023/12/26 09:52:56;;;;;;;16.92;2.15;;;;;;;12.56;64.84;101453.72;5011389;28;20034;-44
2023/12/26 09:55:22;;;;;;;19.20;2.33;;;;;;;12.70;64.74;101456.50;5011957;28;20037;-46
2023/12/26 09:57:48;;;;;;;14.25;2.15;;;;;;;12.28;65.37;101460.25;5011479;28;20493;-48
2023/12/26 10:00:14;;;;;;;11.88;2.03;;;;;;;12.29;64.94;101448.06;5011069;28;20034;-45
2023/12/26 10:02:41;;;;;;;20.77;2.28;;;;;;;12.20;64.66;101454.00;5011576;28;20412;-51
2023/12/26 10:05:07;;;;;;;17.63;2.20;;;;;;;12.67;64.44;101464.31;5012567;28;20030;-45
2023/12/26 10:07:33;;;;;;;13.77;1.80;;;;;;;12.68;64.14;101463.47;5012195;28;20163;-46
2023/12/26 10:09:58;;;;;;;18.00;2.25;;;;;;;12.24;64.29;101478.47;5011812;28;20034;-48
2023/12/26 10:12:30;;;;;;;19.00;2.25;;;;;;;12.05;64.81;101477.28;5011697;28;20044;-50
2023/12/26 10:14:59;;;;;;;12.30;2.47;;;;;;;12.63;63.69;101471.22;5011472;28;20030;-45
2023/12/26 10:17:26;;;;;;;17.23;2.13;;;;;;;12.88;63.07;101467.22;5011675;28;20220;-47
2023/12/26 10:19:56;;;;;;;16.85;1.77;;;;;;;12.62;63.40;101471.22;5010354;28;20547;-46
2023/12/26 10:22:22;;;;;;;13.05;1.80;;;;;;;12.70;63.26;101480.03;5009739;28;20228;-46
2023/12/26 10:24:47;;;;;;;13.43;1.70;;;;;;;13.07;62.35;101470.97;5011629;28;20040;-49
2023/12/26 10:27:14;;;;;;;16.33;2.08;;;;;;;12.82;62.39;101486.34;5011719;28;20419;-48
2023/12/26 10:29:39;;;;;;;16.02;1.90;;;;;;;13.01;62.19;101490.97;5008607;28;20053;-45
2023/12/26 10:32:05;;;;;;;13.18;2.00;;;;;;;13.57;60.20;101488.19;5011728;28;20046;-48
2023/12/26 10:34:30;;;;;;;17.70;2.05;;;;;;;12.92;62.39;101487.34;5011171;28;20060;-48
2023/12/26 10:36:56;;;;;;;18.75;2.38;;;;;;;13.19;62.25;101494.69;5010781;28;20096;-46
2023/12/26 10:39:23;;;;;;;11.48;2.10;;;;;;;13.00;61.95;101502.28;5011711;28;20113;-46
2023/12/26 10:41:49;;;;;;;10.50;2.25;;;;;;;12.64;62.91;101500.88;5010897;28;20044;-46
2023/12/26 10:44:16;;;;;;;14.77;3.03;;;;;;;12.64;62.97;101498.28;5011529;28;20034;-46
2023/12/26 10:46:43;;;;;;;17.80;2.53;;;;;;;12.86;63.15;101509.09;5010924;28;20053;-50
2023/12/26 10:49:17;;;;;;;14.18;2.47;;;;;;;12.86;62.91;101508.22;5011287;28;20129;-45
2023/12/26 10:51:45;;;;;;;;;;;;;;;12.65;62.80;101524.47;5011231;28;20143;-52
2023/12/26 10:54:20;;;;;;;13.77;1.63;;;;;;;12.82;62.90;101524.69;5010844;28;19913;-44
2023/12/26 10:56:49;;;;;;;10.48;1.90;;;;;;;12.94;62.62;101528.38;5010455;28;20033;-50
2023/12/26 13:51:41;;;;;;;11.55;2.00;;;;;;;12.93;58.84;101722.91;5012591;28;20113;-45
2023/12/26 13:54:07;;;;;;;8.95;1.75;;;;;;;13.20;58.80;101737.34;5011693;28;20088;-49
2023/12/26 13:56:32;;;;;;;11.60;2.10;;;;;;;13.10;59.40;101744.16;5012001;28;20654;-46
2023/12/26 13:58:57;;;;;;;8.48;2.00;;;;;;;13.45;59.17;101754.34;5011524;28;20038;-46
2023/12/26 14:01:23;;;;;;;9.90;1.92;;;;;;;13.08;60.28;101763.28;5010836;28;20033;-46
2023/12/26 14:03:51;;;;;;;11.02;2.95;;;;;;;12.62;61.30;101772.06;5011365;28;20091;-47
2023/12/26 14:06:17;;;;;;;11.23;2.10;;;;;;;13.13;60.00;101770.41;5012176;28;20113;-46